Latest Weather Observations for Lismore Airport

IDN60801

Issued at 11:03 am EDT Saturday 13 February 2016 (issued every 30 minutes, with the page automatically refreshed every 10 minutes)

About weather observations | Map of weather stations | Latest weather observations for NSW | Other Formats
Station Details ID: 058214 Name: LISMORE AIRPORT AWS Lat: -28.83 Lon: 153.26 Height: 9.21 m
Data from the previous 72 hours. | See also: Recent months at Lismore Airport
Date/Time
EDT
Temp
°C
App
Temp
°C
Dew
Point
Rel
Hum
%
Delta-T
°C
Wind Press
QNH
hPa
Press
MSL
hPa
Rain
since 9 am
mm
Dir
 
Spd
km/h
Gust
km/h
Spd
kts
Gust
kts
13/11:00am 24.4 23.2 18.3 69 3.8 SSE 22 26 12 14 1013.2 1013.2 -
13/10:30am 25.1 24.2 19.0 69 3.9 S 22 30 12 16 1013.0 1013.0 0.0
13/10:00am 24.7 25.1 19.8 74 3.2 S 17 24 9 13 1013.1 1013.1 0.0
13/09:30am 24.1 24.2 19.2 74 3.1 SSW 17 22 9 12 1013.1 1013.1 0.0
13/09:00am 22.8 23.7 19.2 80 2.3 SSW 13 19 7 10 1013.3 1013.3 0.0
13/08:30am 21.7 24.9 18.9 84 1.8 CALM 0 0 0 0 1013.2 1013.2 0.0
13/08:00am 19.3 22.2 18.3 94 0.6 CALM 0 0 0 0 1013.3 1013.3 0.0
13/07:30am 17.9 20.5 17.4 97 0.3 CALM 0 0 0 0 1013.3 1013.3 0.0
13/07:00am 16.4 18.4 15.9 97 0.3 CALM 0 0 0 0 1013.2 1013.2 0.0
13/06:51am 16.2 17.3 15.7 97 0.3 NE 4 7 2 4 1013.0 1013.0 0.0
13/06:30am 15.7 17.4 15.1 96 0.3 CALM 0 0 0 0 1012.8 1012.8 0.0
13/06:00am 15.4 16.8 14.4 94 0.6 CALM 0 0 0 0 1012.7 1012.7 0.0
13/05:30am 16.1 17.9 15.5 96 0.3 CALM 0 0 0 0 1012.6 1012.6 0.0
13/05:29am 16.1 17.9 15.5 96 0.3 CALM 0 0 0 0 1012.6 1012.6 0.0
13/05:10am 16.1 17.8 15.3 95 0.5 CALM 0 0 0 0 1012.5 1012.5 0.0
13/05:00am 16.1 17.8 15.3 95 0.5 CALM 0 0 0 0 1012.5 1012.5 0.0
13/04:33am 16.1 17.8 15.3 95 0.5 CALM 0 0 0 0 1012.4 1012.4 0.0
13/04:30am 16.1 17.8 15.3 95 0.5 CALM 0 0 0 0 1012.4 1012.4 0.0
13/04:00am 16.8 18.8 16.0 95 0.5 CALM 0 0 0 0 1012.3 1012.3 0.0
13/03:56am 16.6 18.4 15.6 94 0.6 CALM 0 0 0 0 1012.3 1012.3 0.0
13/03:30am 17.0 19.1 16.2 95 0.5 CALM 0 0 0 0 1012.6 1012.6 0.0
13/03:00am 17.2 19.3 16.2 94 0.6 CALM 0 0 0 0 1012.7 1012.7 0.0
13/02:30am 17.7 20.0 16.7 94 0.6 CALM 0 0 0 0 1012.9 1012.9 0.0
13/02:00am 17.8 20.1 16.7 93 0.7 CALM 0 0 0 0 1013.1 1013.1 0.0
13/01:30am 18.1 19.4 17.1 94 0.6 SSW 6 9 3 5 1013.5 1013.5 0.0
13/01:00am 17.4 18.2 16.4 94 0.6 NNE 7 9 4 5 1013.8 1013.8 0.0
13/12:30am 17.4 19.5 16.3 93 0.7 CALM 0 4 0 2 1013.9 1013.9 0.0
13/12:00am 17.1 18.3 15.8 92 0.8 N 4 11 2 6 1014.2 1014.2 0.0
 
Date/Time
EDT
Temp
°C
App
Temp
°C
Dew
Point
Rel
Hum
%
Delta-T
°C
Wind Press
QNH
hPa
Press
MSL
hPa
Rain
since 9 am
mm
Dir
 
Spd
km/h
Gust
km/h
Spd
kts
Gust
kts
12/11:30pm 17.9 19.6 16.1 89 1.1 E 2 7 1 4 1014.3 1014.3 0.0
12/11:00pm 18.9 21.3 16.9 88 1.2 CALM 0 0 0 0 1014.5 1014.5 0.0
12/10:30pm 18.7 20.7 15.9 84 1.7 CALM 0 0 0 0 1014.7 1014.7 0.0
12/10:00pm 20.1 21.7 17.9 87 1.4 ESE 6 7 3 4 1014.8 1014.8 0.0
12/09:30pm 19.8 22.0 16.6 82 1.9 CALM 0 0 0 0 1014.8 1014.8 0.0
12/09:00pm 20.8 23.4 17.4 81 2.1 CALM 0 0 0 0 1014.6 1014.6 0.0
12/08:30pm 21.3 22.7 17.7 80 2.2 S 7 11 4 6 1014.4 1014.4 0.0
12/08:00pm 21.8 22.4 17.6 77 2.6 S 11 13 6 7 1014.2 1014.2 0.0
12/07:30pm 23.7 23.2 17.9 70 3.6 SSE 17 22 9 12 1014.0 1014.0 0.0
12/07:00pm 24.9 23.4 17.6 64 4.6 SSE 22 32 12 17 1013.9 1013.9 0.0
12/06:30pm 25.3 23.4 16.7 59 5.3 SE 22 30 12 16 1013.7 1013.7 0.0
12/06:00pm 25.8 23.3 16.1 55 5.9 SSE 24 39 13 21 1013.5 1013.5 0.0
12/05:30pm 26.7 24.4 16.6 54 6.3 SSE 24 35 13 19 1013.2 1013.2 0.0
12/05:00pm 26.8 24.1 16.7 54 6.3 SSE 26 39 14 21 1013.2 1013.2 0.0
12/04:30pm 27.1 23.6 16.4 52 6.6 SE 30 39 16 21 1013.2 1013.2 0.0
12/04:00pm 27.4 23.7 17.0 53 6.5 SSE 32 41 17 22 1013.2 1013.2 0.0
12/03:30pm 27.6 25.1 18.0 55 6.1 SSE 28 37 15 20 1013.2 1013.2 0.0
12/03:00pm 28.0 26.9 19.5 60 5.5 SE 24 35 13 19 1013.3 1013.3 0.0
12/02:30pm 28.0 26.6 18.7 57 6.0 SE 24 37 13 20 1013.5 1013.5 0.0
12/02:00pm 26.6 24.3 18.5 61 5.2 SSE 28 41 15 22 1013.5 1013.5 0.0
12/01:30pm 26.8 24.2 17.8 57 5.7 SSE 28 35 15 19 1013.6 1013.6 0.0
12/01:00pm 26.6 25.2 18.7 62 5.0 SE 24 32 13 17 1013.8 1013.8 0.0
12/12:30pm 27.2 26.0 20.0 64 4.7 SE 26 39 14 21 1014.0 1014.0 0.0
12/12:00pm 26.2 26.1 19.6 67 4.3 SE 19 28 10 15 1014.3 1014.3 0.0
12/11:30am 27.1 27.6 20.9 69 4.1 S 19 26 10 14 1014.4 1014.4 0.0
12/11:00am 26.1 27.1 20.2 70 3.8 S 15 20 8 11 1014.7 1014.7 0.0
12/10:30am 25.2 26.3 20.5 75 3.1 S 15 20 8 11 1014.9 1014.9 0.0
12/10:00am 23.9 25.3 19.6 77 2.8 S 11 17 6 9 1015.0 1015.0 0.0
12/09:30am 22.7 24.2 19.7 83 1.9 SSW 11 13 6 7 1014.9 1014.9 0.0
12/09:00am 21.9 24.6 19.5 86 1.5 SSE 4 9 2 5 1015.0 1015.0 0.4
12/08:30am 21.1 24.4 19.0 88 1.3 CALM 0 0 0 0 1014.9 1014.9 -
12/08:00am 19.6 22.8 18.8 95 0.5 CALM 0 0 0 0 1014.9 1014.9 -
12/07:30am 18.5 20.2 18.0 97 0.3 NW 6 9 3 5 1014.5 1014.5 -
12/07:00am 17.8 19.9 17.3 97 0.3 NNE 2 7 1 4 1014.5 1014.5 -
12/06:30am 17.0 19.2 16.4 96 0.4 CALM 0 0 0 0 1014.2 1014.2 -
12/06:00am 16.7 18.7 16.1 96 0.4 CALM 0 0 0 0 1014.3 1014.3 -
12/05:30am 17.2 19.5 16.7 97 0.3 CALM 0 0 0 0 1013.7 1013.7 -
12/05:00am 16.1 17.8 15.3 95 0.5 CALM 0 0 0 0 1013.5 1013.5 -
12/04:57am 16.1 17.8 15.3 95 0.5 CALM 0 0 0 0 1013.6 1013.6 -
12/04:38am 16.6 17.3 16.1 97 0.3 N 7 9 4 5 1013.6 1013.6 -
12/04:37am 16.8 17.6 16.3 97 0.3 N 7 9 4 5 1013.5 1013.5 -
12/04:35am 16.7 17.4 16.2 97 0.3 N 7 9 4 5 1013.5 1013.5 -
12/04:30am 16.7 17.4 16.2 97 0.3 N 7 9 4 5 1013.5 1013.5 -
12/04:00am 16.3 18.0 15.3 94 0.6 CALM 0 0 0 0 1013.5 1013.5 -
12/03:30am 16.7 18.5 15.6 93 0.6 CALM 0 0 0 0 1013.9 1013.9 -
12/03:29am 16.8 18.7 15.7 93 0.6 CALM 0 0 0 0 1013.9 1013.9 -
12/03:03am 17.4 19.6 16.4 94 0.6 CALM 0 0 0 0 1013.9 1013.9 -
12/03:00am 17.3 19.4 16.3 94 0.6 CALM 0 0 0 0 1013.9 1013.9 0.0
12/02:30am 17.4 19.6 16.4 94 0.6 CALM 0 0 0 0 1014.0 1014.0 -
12/02:00am 18.0 20.6 17.4 96 0.4 CALM 0 0 0 0 1014.0 1014.0 -
12/01:46am 17.6 19.8 16.5 93 0.7 CALM 0 0 0 0 1014.1 1014.1 -
12/01:30am 18.3 20.9 17.5 95 0.5 CALM 0 0 0 0 1014.2 1014.2 -
12/01:27am 17.9 20.2 16.8 93 0.7 CALM 0 0 0 0 1014.2 1014.2 -
12/01:00am 17.8 20.1 16.7 93 0.7 CALM 0 0 0 0 1014.4 1014.4 -
12/12:30am 18.2 20.6 17.0 93 0.7 CALM 0 0 0 0 1014.6 1014.6 -
12/12:00am 18.4 21.0 17.4 94 0.6 CALM 0 0 0 0 1014.7 1014.7 -
 
Date/Time
EDT
Temp
°C
App
Temp
°C
Dew
Point
Rel
Hum
%
Delta-T
°C
Wind Press
QNH
hPa
Press
MSL
hPa
Rain
since 9 am
mm
Dir
 
Spd
km/h
Gust
km/h
Spd
kts
Gust
kts
11/11:30pm 18.2 20.4 16.4 89 1.1 CALM 0 0 0 0 1014.7 1014.7 -
11/11:00pm 19.3 21.9 17.6 90 1.0 CALM 0 0 0 0 1014.9 1014.9 -
11/10:30pm 19.8 22.7 18.1 90 1.1 CALM 0 0 0 0 1014.8 1014.8 -
11/10:00pm 20.4 23.3 18.3 88 1.3 CALM 0 0 0 0 1014.7 1014.7 -
11/09:30pm 20.0 22.6 17.4 85 1.6 CALM 0 0 0 0 1014.5 1014.5 -
11/09:00pm 20.6 23.3 17.8 84 1.7 CALM 0 0 0 0 1014.3 1014.3 -
11/08:30pm 22.2 25.0 18.0 77 2.6 CALM 0 0 0 0 1014.0 1014.0 -
11/08:00pm 23.2 25.0 18.3 74 3.1 SE 6 9 3 5 1013.8 1013.8 -
11/07:30pm 23.9 25.0 18.1 70 3.6 ESE 9 15 5 8 1013.5 1013.5 -
11/07:00pm 25.0 25.0 18.0 65 4.4 ESE 15 22 8 12 1013.1 1013.1 -
11/06:30pm 26.0 25.8 18.4 63 4.8 SE 17 24 9 13 1012.7 1012.7 -
11/06:00pm 26.4 26.1 18.3 61 5.1 ESE 17 26 9 14 1012.6 1012.6 -
11/05:30pm 26.7 26.0 18.6 61 5.2 SE 20 28 11 15 1012.4 1012.4 -
11/05:00pm 27.0 25.7 17.2 55 6.1 SE 20 30 11 16 1012.2 1012.2 -
11/04:30pm 27.6 26.9 18.6 58 5.8 SE 20 30 11 16 1012.2 1012.2 -
11/04:00pm 27.5 26.4 17.7 55 6.2 SE 20 30 11 16 1012.2 1012.2 -
11/03:30pm 28.0 27.1 18.1 55 6.3 SSE 20 30 11 16 1012.2 1012.2 -
11/03:00pm 28.1 27.3 18.5 56 6.1 ESE 20 28 11 15 1012.4 1012.4 -
11/02:30pm 27.5 26.7 17.9 55 6.1 ESE 19 26 10 14 1012.7 1012.7 -
11/02:00pm 28.6 27.8 18.4 54 6.5 SE 20 30 11 16 1012.9 1012.9 -
11/01:30pm 28.2 26.7 17.7 53 6.6 SE 22 30 12 16 1013.1 1013.1 -
11/01:00pm 28.4 27.6 18.5 55 6.3 SE 20 32 11 17 1013.3 1013.3 -
11/12:30pm 27.6 26.8 18.0 55 6.1 ESE 19 28 10 15 1013.7 1013.7 -
11/12:00pm 27.6 27.6 18.9 59 5.6 ESE 17 26 9 14 1013.9 1013.9 -
11/11:00am 27.4 28.6 20.0 64 4.8 SSE 13 19 7 10 1014.1 1014.1 0.0
11/10:30am 25.2 26.7 19.8 72 3.5 S 11 19 6 10 1014.1 1014.1 0.0
11/10:00am 24.9 26.9 19.9 74 3.2 SSE 9 15 5 8 1014.3 1014.3 0.0
11/09:30am 24.6 26.8 20.5 78 2.7 S 9 15 5 8 1014.2 1014.2 0.0
11/09:00am 23.3 26.5 19.7 80 2.3 SW 2 9 1 5 1014.3 1014.3 1.2
11/08:30am 22.6 26.3 19.9 85 1.7 CALM 0 0 0 0 1014.2 1014.2 1.2
11/08:00am 20.9 24.2 19.2 90 1.1 CALM 0 0 0 0 1014.1 1014.1 1.2
11/07:30am 19.8 23.2 19.3 97 0.3 CALM 0 0 0 0 1013.8 1013.8 1.2
11/07:25am 19.5 22.8 19.0 97 0.3 CALM 0 0 0 0 1013.8 1013.8 1.2
11/07:00am 18.1 20.6 17.3 95 0.5 CALM 0 0 0 0 1013.5 1013.5 1.2
11/06:30am 18.1 20.5 17.1 94 0.6 CALM 0 0 0 0 1013.1 1013.1 1.2
11/06:14am 18.7 21.4 17.7 94 0.6 CALM 0 0 0 0 1012.9 1012.9 1.2
11/06:00am 19.1 22.0 18.1 94 0.6 CALM 0 0 0 0 1012.8 1012.8 1.2
11/05:30am 19.0 21.8 18.0 94 0.6 CALM 0 0 0 0 1012.7 1012.7 1.2
11/05:00am 19.2 22.0 18.0 93 0.7 CALM 0 0 0 0 1012.6 1012.6 1.2
11/04:30am 19.9 23.1 18.9 94 0.6 CALM 0 0 0 0 1012.5 1012.5 1.2
11/04:00am 19.8 22.9 18.6 93 0.7 CALM 0 0 0 0 1012.7 1012.7 1.2
11/03:30am 19.8 22.8 18.5 92 0.8 CALM 0 0 0 0 1012.9 1012.9 1.2
11/03:00am 20.1 23.2 18.6 91 0.9 CALM 0 0 0 0 1013.1 1013.1 1.2
11/02:30am 20.3 22.6 18.6 90 1.1 WSW 4 9 2 5 1013.2 1013.2 1.2
11/02:00am 20.5 23.8 19.0 91 0.9 CALM 0 0 0 0 1013.4 1013.4 1.2
11/01:30am 20.8 24.3 19.5 92 0.8 CALM 0 0 0 0 1013.6 1013.6 1.2
11/01:00am 21.2 24.8 19.7 91 1.0 CALM 0 0 0 0 1014.1 1014.1 1.2
11/12:30am 21.0 24.5 19.5 91 1.0 CALM 0 0 0 0 1014.3 1014.3 1.2
11/12:00am 20.9 24.3 19.4 91 1.0 CALM 0 0 0 0 1014.4 1014.4 1.2
 
Date/Time
EDT
Temp
°C
App
Temp
°C
Dew
Point
Rel
Hum
%
Delta-T
°C
Wind Press
QNH
hPa
Press
MSL
hPa
Rain
since 9 am
mm
Dir
 
Spd
km/h
Gust
km/h
Spd
kts
Gust
kts
10/11:30pm 21.0 24.4 19.3 90 1.1 CALM 0 0 0 0 1014.6 1014.6 1.2
10/11:00pm 20.7 22.6 19.0 90 1.1 NNW 7 9 4 5 1014.5 1014.5 1.2
10/10:30pm 20.9 22.5 19.2 90 1.1 NNW 9 11 5 6 1014.8 1014.8 1.2
10/10:00pm 21.1 23.6 19.0 88 1.3 N 4 9 2 5 1014.7 1014.7 1.2
10/09:30pm 21.4 24.7 19.0 86 1.5 CALM 0 0 0 0 1014.6 1014.6 1.2
10/09:00pm 21.7 24.8 18.7 83 1.9 CALM 0 0 0 0 1014.4 1014.4 1.2
10/08:30pm 22.1 24.2 18.9 82 2.0 ESE 6 11 3 6 1014.4 1014.4 1.2
10/08:00pm 22.7 23.9 19.1 80 2.3 SE 11 15 6 8 1014.3 1014.3 1.2
10/07:30pm 23.2 24.6 18.7 76 2.8 ESE 9 13 5 7 1014.0 1014.0 1.2
10/07:00pm 23.7 24.3 18.6 73 3.2 ESE 13 20 7 11 1013.5 1013.5 1.2
10/06:30pm 24.3 24.4 19.1 73 3.3 SE 17 26 9 14 1013.3 1013.3 1.2
10/06:00pm 24.6 24.0 18.8 70 3.7 SE 20 33 11 18 1013.0 1013.0 1.2
10/05:30pm 25.8 25.4 19.4 67 4.1 SE 20 30 11 16 1012.8 1012.8 1.2
10/05:00pm 25.8 25.2 19.7 69 3.9 SE 22 30 12 16 1012.8 1012.8 1.2
10/04:30pm 26.5 25.8 18.6 62 5.0 ESE 20 28 11 15 1012.5 1012.5 1.2
10/04:00pm 26.7 26.7 19.8 66 4.5 SE 19 32 10 17 1012.6 1012.6 1.2
10/03:30pm 27.0 27.2 20.1 66 4.5 SSE 19 28 10 15 1012.9 1012.9 1.2
10/03:00pm 26.4 26.4 19.8 67 4.3 SE 19 30 10 16 1013.2 1013.2 1.2
10/02:30pm 24.4 25.8 20.3 78 2.7 SE 13 20 7 11 1013.7 1013.7 1.2
10/02:00pm 24.9 23.8 18.6 68 4.0 SSE 22 37 12 20 1013.8 1013.8 1.2
10/01:30pm 25.5 24.6 18.2 64 4.6 SSE 20 30 11 16 1013.7 1013.7 1.2
10/01:00pm 26.7 25.9 18.0 59 5.5 S 19 28 10 15 1013.8 1013.8 1.2
10/12:30pm 26.7 26.4 18.3 60 5.3 S 17 22 9 12 1014.0 1014.0 1.2
10/12:00pm 25.1 27.9 19.7 72 3.5 WSW 4 9 2 5 1014.4 1014.4 1.2
10/11:30am 25.5 26.8 18.4 65 4.5 SSW 9 17 5 9 1014.6 1014.6 0.0

Other Formats:

Comma delimited format used in spreadsheet applications
http://www.bom.gov.au/fwo/IDN60801/IDN60801.94572.axf

JavaScript Object Notation format (JSON) in row-major order
http://www.bom.gov.au/fwo/IDN60801/IDN60801.94572.json